sensor_id;sensor_type;location;lat;lon;timestamp;temperature;humidity
12981;DHT22;6555;50.468;8.480;2022-08-21T00:00:28;21.40;37.50
12981;DHT22;6555;50.468;8.480;2022-08-21T00:05:53;21.30;38.10
12981;DHT22;6555;50.468;8.480;2022-08-21T00:11:27;21.20;37.80
12981;DHT22;6555;50.468;8.480;2022-08-21T00:16:43;21.10;38.30
12981;DHT22;6555;50.468;8.480;2022-08-21T00:22:16;21.00;37.90
12981;DHT22;6555;50.468;8.480;2022-08-21T00:27:33;20.90;38.60
12981;DHT22;6555;50.468;8.480;2022-08-21T00:33:04;20.90;38.10
12981;DHT22;6555;50.468;8.480;2022-08-21T00:38:22;20.80;38.60
12981;DHT22;6555;50.468;8.480;2022-08-21T00:43:53;20.80;38.40
12981;DHT22;6555;50.468;8.480;2022-08-21T00:49:11;20.70;38.70
12981;DHT22;6555;50.468;8.480;2022-08-21T00:54:43;20.60;38.30
12981;DHT22;6555;50.468;8.480;2022-08-21T01:00:03;20.60;38.80
12981;DHT22;6555;50.468;8.480;2022-08-21T01:05:35;20.50;38.60
12981;DHT22;6555;50.468;8.480;2022-08-21T01:10:53;20.40;39.00
12981;DHT22;6555;50.468;8.480;2022-08-21T01:16:24;20.30;38.80
12981;DHT22;6555;50.468;8.480;2022-08-21T01:21:42;20.30;39.00
12981;DHT22;6555;50.468;8.480;2022-08-21T01:27:12;20.20;38.80
12981;DHT22;6555;50.468;8.480;2022-08-21T01:32:28;20.10;39.10
12981;DHT22;6555;50.468;8.480;2022-08-21T01:38:00;20.00;38.60
12981;DHT22;6555;50.468;8.480;2022-08-21T01:43:16;20.00;39.20
12981;DHT22;6555;50.468;8.480;2022-08-21T01:48:53;19.90;38.80
12981;DHT22;6555;50.468;8.480;2022-08-21T01:54:11;19.80;39.30
12981;DHT22;6555;50.468;8.480;2022-08-21T01:59:41;19.70;39.10
12981;DHT22;6555;50.468;8.480;2022-08-21T02:04:57;19.60;39.50
12981;DHT22;6555;50.468;8.480;2022-08-21T02:10:30;19.50;39.10
12981;DHT22;6555;50.468;8.480;2022-08-21T02:15:55;19.40;39.60
12981;DHT22;6555;50.468;8.480;2022-08-21T02:21:28;19.40;39.30
12981;DHT22;6555;50.468;8.480;2022-08-21T02:26:46;19.30;39.80
12981;DHT22;6555;50.468;8.480;2022-08-21T02:32:16;19.30;39.60
12981;DHT22;6555;50.468;8.480;2022-08-21T02:37:33;19.20;40.10
12981;DHT22;6555;50.468;8.480;2022-08-21T02:43:05;19.20;39.50
12981;DHT22;6555;50.468;8.480;2022-08-21T02:48:25;19.10;40.30
12981;DHT22;6555;50.468;8.480;2022-08-21T02:53:55;19.00;39.80
12981;DHT22;6555;50.468;8.480;2022-08-21T02:59:13;19.00;40.30
12981;DHT22;6555;50.468;8.480;2022-08-21T03:04:43;18.90;39.90
12981;DHT22;6555;50.468;8.480;2022-08-21T03:10:00;18.90;40.40
12981;DHT22;6555;50.468;8.480;2022-08-21T03:15:32;18.80;39.90
12981;DHT22;6555;50.468;8.480;2022-08-21T03:20:49;18.70;40.60
12981;DHT22;6555;50.468;8.480;2022-08-21T03:26:19;18.70;40.00
12981;DHT22;6555;50.468;8.480;2022-08-21T03:31:37;18.60;40.60
12981;DHT22;6555;50.468;8.480;2022-08-21T03:39:09;18.30;39.80
12981;DHT22;6555;50.468;8.480;2022-08-21T03:44:38;18.30;40.90
12981;DHT22;6555;50.468;8.480;2022-08-21T03:49:55;18.20;40.80
12981;DHT22;6555;50.468;8.480;2022-08-21T03:55:27;18.10;40.70
12981;DHT22;6555;50.468;8.480;2022-08-21T04:00:44;18.20;41.60
12981;DHT22;6555;50.468;8.480;2022-08-21T04:06:14;18.20;41.00
12981;DHT22;6555;50.468;8.480;2022-08-21T04:11:32;18.20;41.40
12981;DHT22;6555;50.468;8.480;2022-08-21T04:17:03;18.20;40.90
12981;DHT22;6555;50.468;8.480;2022-08-21T04:22:19;18.20;41.20
12981;DHT22;6555;50.468;8.480;2022-08-21T04:27:50;18.10;40.70
12981;DHT22;6555;50.468;8.480;2022-08-21T04:33:07;18.10;41.30
12981;DHT22;6555;50.468;8.480;2022-08-21T04:38:36;17.90;40.60
12981;DHT22;6555;50.468;8.480;2022-08-21T04:44:10;17.80;41.30
12981;DHT22;6555;50.468;8.480;2022-08-21T04:49:27;17.80;41.60
12981;DHT22;6555;50.468;8.480;2022-08-21T04:54:57;17.60;40.90
12981;DHT22;6555;50.468;8.480;2022-08-21T05:00:15;17.50;41.70
12981;DHT22;6555;50.468;8.480;2022-08-21T05:05:46;17.40;41.50
12981;DHT22;6555;50.468;8.480;2022-08-21T05:11:02;17.50;42.30
12981;DHT22;6555;50.468;8.480;2022-08-21T05:16:34;17.50;41.90
12981;DHT22;6555;50.468;8.480;2022-08-21T05:21:51;17.50;42.70
12981;DHT22;6555;50.468;8.480;2022-08-21T05:27:14;17.50;42.00
12981;DHT22;6555;50.468;8.480;2022-08-21T05:32:47;17.50;41.90
12981;DHT22;6555;50.468;8.480;2022-08-21T05:38:04;17.60;42.80
12981;DHT22;6555;50.468;8.480;2022-08-21T05:43:35;17.60;42.20
12981;DHT22;6555;50.468;8.480;2022-08-21T05:48:52;17.70;43.20
12981;DHT22;6555;50.468;8.480;2022-08-21T05:54:22;17.70;42.70
12981;DHT22;6555;50.468;8.480;2022-08-21T05:59:38;17.90;43.60
12981;DHT22;6555;50.468;8.480;2022-08-21T06:05:09;17.90;43.00
12981;DHT22;6555;50.468;8.480;2022-08-21T06:10:46;18.10;44.10
12981;DHT22;6555;50.468;8.480;2022-08-21T06:16:16;18.20;43.20
12981;DHT22;6555;50.468;8.480;2022-08-21T06:21:34;18.30;44.30
12981;DHT22;6555;50.468;8.480;2022-08-21T06:27:06;18.50;44.00
12981;DHT22;6555;50.468;8.480;2022-08-21T06:32:23;18.70;45.00
12981;DHT22;6555;50.468;8.480;2022-08-21T06:37:54;19.00;44.30
12981;DHT22;6555;50.468;8.480;2022-08-21T06:43:25;19.30;45.10
12981;DHT22;6555;50.468;8.480;2022-08-21T06:48:47;19.60;44.90
12981;DHT22;6555;50.468;8.480;2022-08-21T06:54:18;19.90;44.30
12981;DHT22;6555;50.468;8.480;2022-08-21T06:59:35;20.20;45.00
12981;DHT22;6555;50.468;8.480;2022-08-21T07:05:05;20.50;44.50
12981;DHT22;6555;50.468;8.480;2022-08-21T07:10:27;20.80;44.70
12981;DHT22;6555;50.468;8.480;2022-08-21T07:15:58;21.10;44.30
12981;DHT22;6555;50.468;8.480;2022-08-21T07:21:15;21.40;44.40
12981;DHT22;6555;50.468;8.480;2022-08-21T07:26:47;21.60;44.10
12981;DHT22;6555;50.468;8.480;2022-08-21T07:32:05;21.90;44.40
12981;DHT22;6555;50.468;8.480;2022-08-21T07:37:36;22.10;44.20
12981;DHT22;6555;50.468;8.480;2022-08-21T07:42:53;22.40;44.10
12981;DHT22;6555;50.468;8.480;2022-08-21T07:48:24;22.80;44.10
12981;DHT22;6555;50.468;8.480;2022-08-21T07:53:40;23.00;44.40
12981;DHT22;6555;50.468;8.480;2022-08-21T07:59:12;23.30;44.00
12981;DHT22;6555;50.468;8.480;2022-08-21T08:04:29;23.50;44.10
12981;DHT22;6555;50.468;8.480;2022-08-21T08:10:06;23.80;43.80
12981;DHT22;6555;50.468;8.480;2022-08-21T08:15:26;24.10;43.90
12981;DHT22;6555;50.468;8.480;2022-08-21T08:20:57;24.40;43.80
12981;DHT22;6555;50.468;8.480;2022-08-21T08:26:13;24.70;43.70
12981;DHT22;6555;50.468;8.480;2022-08-21T08:31:44;24.90;43.70
12981;DHT22;6555;50.468;8.480;2022-08-21T08:37:01;25.20;43.10
12981;DHT22;6555;50.468;8.480;2022-08-21T08:42:33;25.50;42.70
12981;DHT22;6555;50.468;8.480;2022-08-21T08:47:55;25.70;42.10
12981;DHT22;6555;50.468;8.480;2022-08-21T08:53:30;25.90;41.70
12981;DHT22;6555;50.468;8.480;2022-08-21T08:58:50;26.10;41.60
12981;DHT22;6555;50.468;8.480;2022-08-21T09:04:25;26.20;41.70
12981;DHT22;6555;50.468;8.480;2022-08-21T09:09:59;26.30;41.20
12981;DHT22;6555;50.468;8.480;2022-08-21T09:15:35;26.50;40.80
12981;DHT22;6555;50.468;8.480;2022-08-21T09:21:04;26.70;40.50
12981;DHT22;6555;50.468;8.480;2022-08-21T09:26:44;26.90;40.30
12981;DHT22;6555;50.468;8.480;2022-08-21T09:32:04;27.10;40.20
12981;DHT22;6555;50.468;8.480;2022-08-21T09:37:55;27.20;40.40
12981;DHT22;6555;50.468;8.480;2022-08-21T09:43:18;27.30;39.90
12981;DHT22;6555;50.468;8.480;2022-08-21T09:48:50;27.40;40.00
12981;DHT22;6555;50.468;8.480;2022-08-21T09:54:15;27.60;39.40
12981;DHT22;6555;50.468;8.480;2022-08-21T09:59:46;27.70;39.30
12981;DHT22;6555;50.468;8.480;2022-08-21T10:05:15;27.90;39.00
12981;DHT22;6555;50.468;8.480;2022-08-21T10:10:51;28.10;39.40
12981;DHT22;6555;50.468;8.480;2022-08-21T10:16:17;28.30;38.40
12981;DHT22;6555;50.468;8.480;2022-08-21T10:22:00;28.40;38.20
12981;DHT22;6555;50.468;8.480;2022-08-21T10:27:25;28.60;37.80
12981;DHT22;6555;50.468;8.480;2022-08-21T10:33:08;28.70;37.80
12981;DHT22;6555;50.468;8.480;2022-08-21T10:38:55;28.90;37.60
12981;DHT22;6555;50.468;8.480;2022-08-21T10:45:02;29.10;37.80
12981;DHT22;6555;50.468;8.480;2022-08-21T10:50:38;29.30;37.40
12981;DHT22;6555;50.468;8.480;2022-08-21T10:56:16;29.40;37.10
12981;DHT22;6555;50.468;8.480;2022-08-21T11:01:42;29.60;37.00
12981;DHT22;6555;50.468;8.480;2022-08-21T11:07:19;29.80;36.00
12981;DHT22;6555;50.468;8.480;2022-08-21T11:12:44;30.00;36.70
12981;DHT22;6555;50.468;8.480;2022-08-21T11:18:22;30.10;36.90
12981;DHT22;6555;50.468;8.480;2022-08-21T11:23:45;30.30;36.20
12981;DHT22;6555;50.468;8.480;2022-08-21T11:29:19;30.50;36.00
12981;DHT22;6555;50.468;8.480;2022-08-21T11:34:59;30.70;35.20
12981;DHT22;6555;50.468;8.480;2022-08-21T11:40:28;30.80;35.20
12981;DHT22;6555;50.468;8.480;2022-08-21T11:46:13;30.90;34.90
12981;DHT22;6555;50.468;8.480;2022-08-21T11:51:42;31.00;35.40
12981;DHT22;6555;50.468;8.480;2022-08-21T11:57:18;31.10;35.10
12981;DHT22;6555;50.468;8.480;2022-08-21T12:02:39;31.20;34.70
12981;DHT22;6555;50.468;8.480;2022-08-21T12:08:25;31.30;34.70
12981;DHT22;6555;50.468;8.480;2022-08-21T12:13:54;31.50;34.10
12981;DHT22;6555;50.468;8.480;2022-08-21T12:19:31;31.70;34.10
12981;DHT22;6555;50.468;8.480;2022-08-21T12:24:49;31.80;33.20
12981;DHT22;6555;50.468;8.480;2022-08-21T12:30:23;32.00;33.80
12981;DHT22;6555;50.468;8.480;2022-08-21T12:35:51;32.10;33.20
12981;DHT22;6555;50.468;8.480;2022-08-21T12:41:27;32.20;33.70
12981;DHT22;6555;50.468;8.480;2022-08-21T12:46:48;32.40;33.40
12981;DHT22;6555;50.468;8.480;2022-08-21T12:52:22;32.60;33.10
12981;DHT22;6555;50.468;8.480;2022-08-21T12:57:54;32.90;32.50
12981;DHT22;6555;50.468;8.480;2022-08-21T13:03:13;33.10;32.40
12981;DHT22;6555;50.468;8.480;2022-08-21T13:08:45;33.20;32.60
12981;DHT22;6555;50.468;8.480;2022-08-21T13:14:05;33.40;32.10
12981;DHT22;6555;50.468;8.480;2022-08-21T13:19:36;33.60;32.10
12981;DHT22;6555;50.468;8.480;2022-08-21T13:24:53;33.80;31.80
12981;DHT22;6555;50.468;8.480;2022-08-21T13:30:25;33.90;31.60
12981;DHT22;6555;50.468;8.480;2022-08-21T13:35:50;33.90;30.70
12981;DHT22;6555;50.468;8.480;2022-08-21T13:41:23;33.90;30.70
12981;DHT22;6555;50.468;8.480;2022-08-21T13:46:41;33.90;30.70
12981;DHT22;6555;50.468;8.480;2022-08-21T13:52:18;34.10;31.50
12981;DHT22;6555;50.468;8.480;2022-08-21T13:57:58;34.30;30.80
12981;DHT22;6555;50.468;8.480;2022-08-21T14:03:27;34.40;30.40
12981;DHT22;6555;50.468;8.480;2022-08-21T14:09:00;34.50;30.00
12981;DHT22;6555;50.468;8.480;2022-08-21T14:14:20;34.60;30.10
12981;DHT22;6555;50.468;8.480;2022-08-21T14:19:53;34.70;30.00
12981;DHT22;6555;50.468;8.480;2022-08-21T14:25:12;34.70;29.60
12981;DHT22;6555;50.468;8.480;2022-08-21T14:30:43;34.60;29.80
12981;DHT22;6555;50.468;8.480;2022-08-21T14:36:03;34.70;29.20
12981;DHT22;6555;50.468;8.480;2022-08-21T14:41:33;34.70;29.40
12981;DHT22;6555;50.468;8.480;2022-08-21T14:46:49;34.70;28.70
12981;DHT22;6555;50.468;8.480;2022-08-21T14:52:20;34.60;29.00
12981;DHT22;6555;50.468;8.480;2022-08-21T14:57:52;34.50;28.80
12981;DHT22;6555;50.468;8.480;2022-08-21T15:03:10;34.50;28.80
12981;DHT22;6555;50.468;8.480;2022-08-21T15:08:42;34.50;28.80
12981;DHT22;6555;50.468;8.480;2022-08-21T15:14:00;34.40;28.40
12981;DHT22;6555;50.468;8.480;2022-08-21T15:19:31;34.30;28.70
12981;DHT22;6555;50.468;8.480;2022-08-21T15:24:48;34.10;28.40
12981;DHT22;6555;50.468;8.480;2022-08-21T15:30:19;33.90;28.40
12981;DHT22;6555;50.468;8.480;2022-08-21T15:35:36;33.80;28.30
12981;DHT22;6555;50.468;8.480;2022-08-21T15:41:08;33.70;28.70
12981;DHT22;6555;50.468;8.480;2022-08-21T15:46:24;33.70;28.40
12981;DHT22;6555;50.468;8.480;2022-08-21T15:51:54;33.80;28.80
12981;DHT22;6555;50.468;8.480;2022-08-21T15:57:26;33.90;28.40
12981;DHT22;6555;50.468;8.480;2022-08-21T16:02:44;34.10;28.50
12981;DHT22;6555;50.468;8.480;2022-08-21T16:08:14;34.20;28.60
12981;DHT22;6555;50.468;8.480;2022-08-21T16:13:36;34.00;28.20
12981;DHT22;6555;50.468;8.480;2022-08-21T16:19:12;33.90;27.90
12981;DHT22;6555;50.468;8.480;2022-08-21T16:24:29;33.70;27.90
12981;DHT22;6555;50.468;8.480;2022-08-21T16:30:02;33.50;28.40
12981;DHT22;6555;50.468;8.480;2022-08-21T16:35:20;33.40;28.00
12981;DHT22;6555;50.468;8.480;2022-08-21T16:40:52;33.30;28.30
12981;DHT22;6555;50.468;8.480;2022-08-21T16:46:13;33.20;28.00
12981;DHT22;6555;50.468;8.480;2022-08-21T16:51:44;33.00;28.30
12981;DHT22;6555;50.468;8.480;2022-08-21T16:57:14;32.90;27.80
12981;DHT22;6555;50.468;8.480;2022-08-21T17:02:36;32.70;27.90
12981;DHT22;6555;50.468;8.480;2022-08-21T17:08:07;32.50;28.00
12981;DHT22;6555;50.468;8.480;2022-08-21T17:13:24;32.40;28.50
12981;DHT22;6555;50.468;8.480;2022-08-21T17:18:55;32.20;28.20
12981;DHT22;6555;50.468;8.480;2022-08-21T17:24:12;32.10;28.00
12981;DHT22;6555;50.468;8.480;2022-08-21T17:29:42;31.90;28.00
12981;DHT22;6555;50.468;8.480;2022-08-21T17:35:00;31.70;28.00
12981;DHT22;6555;50.468;8.480;2022-08-21T17:40:30;31.50;28.10
12981;DHT22;6555;50.468;8.480;2022-08-21T17:45:46;31.40;28.10
12981;DHT22;6555;50.468;8.480;2022-08-21T17:51:18;31.20;28.30
12981;DHT22;6555;50.468;8.480;2022-08-21T17:56:37;31.10;28.40
12981;DHT22;6555;50.468;8.480;2022-08-21T18:02:08;30.90;28.10
12981;DHT22;6555;50.468;8.480;2022-08-21T18:07:29;30.80;28.10
12981;DHT22;6555;50.468;8.480;2022-08-21T18:13:02;30.70;28.30
12981;DHT22;6555;50.468;8.480;2022-08-21T18:18:20;30.50;28.10
12981;DHT22;6555;50.468;8.480;2022-08-21T18:23:52;30.40;28.40
12981;DHT22;6555;50.468;8.480;2022-08-21T18:29:11;30.20;28.30
12981;DHT22;6555;50.468;8.480;2022-08-21T18:34:42;30.00;28.40
12981;DHT22;6555;50.468;8.480;2022-08-21T18:40:01;29.80;28.30
12981;DHT22;6555;50.468;8.480;2022-08-21T18:45:31;29.50;28.40
12981;DHT22;6555;50.468;8.480;2022-08-21T18:50:58;29.20;28.40
12981;DHT22;6555;50.468;8.480;2022-08-21T18:56:29;28.90;28.20
12981;DHT22;6555;50.468;8.480;2022-08-21T19:01:47;28.60;28.30
12981;DHT22;6555;50.468;8.480;2022-08-21T19:07:17;28.30;28.50
12981;DHT22;6555;50.468;8.480;2022-08-21T19:12:36;28.00;29.20
12981;DHT22;6555;50.468;8.480;2022-08-21T19:18:11;27.70;28.60
12981;DHT22;6555;50.468;8.480;2022-08-21T19:23:35;27.50;28.80
12981;DHT22;6555;50.468;8.480;2022-08-21T19:29:11;27.30;28.90
12981;DHT22;6555;50.468;8.480;2022-08-21T19:34:42;27.10;29.10
12981;DHT22;6555;50.468;8.480;2022-08-21T19:40:13;27.00;29.10
12981;DHT22;6555;50.468;8.480;2022-08-21T19:45:33;26.80;29.00
12981;DHT22;6555;50.468;8.480;2022-08-21T19:51:04;26.60;29.10
12981;DHT22;6555;50.468;8.480;2022-08-21T19:56:22;26.60;29.30
12981;DHT22;6555;50.468;8.480;2022-08-21T20:01:54;26.40;29.30
12981;DHT22;6555;50.468;8.480;2022-08-21T20:07:10;26.30;29.40
12981;DHT22;6555;50.468;8.480;2022-08-21T20:12:40;26.20;29.40
12981;DHT22;6555;50.468;8.480;2022-08-21T20:18:00;26.00;29.50
12981;DHT22;6555;50.468;8.480;2022-08-21T20:23:30;25.80;29.20
12981;DHT22;6555;50.468;8.480;2022-08-21T20:28:57;25.50;29.50
12981;DHT22;6555;50.468;8.480;2022-08-21T20:34:29;25.30;29.60
12981;DHT22;6555;50.468;8.480;2022-08-21T20:39:45;25.10;30.00
12981;DHT22;6555;50.468;8.480;2022-08-21T20:45:18;25.00;29.90
12981;DHT22;6555;50.468;8.480;2022-08-21T20:50:40;24.90;30.10
12981;DHT22;6555;50.468;8.480;2022-08-21T20:56:16;24.80;30.20
12981;DHT22;6555;50.468;8.480;2022-08-21T21:01:37;24.70;30.50
12981;DHT22;6555;50.468;8.480;2022-08-21T21:07:13;24.60;30.10
12981;DHT22;6555;50.468;8.480;2022-08-21T21:12:34;24.50;30.80
12981;DHT22;6555;50.468;8.480;2022-08-21T21:18:10;24.40;30.50
12981;DHT22;6555;50.468;8.480;2022-08-21T21:23:34;24.30;31.70
12981;DHT22;6555;50.468;8.480;2022-08-21T21:29:13;24.20;30.90
12981;DHT22;6555;50.468;8.480;2022-08-21T21:34:34;24.20;31.10
12981;DHT22;6555;50.468;8.480;2022-08-21T21:40:23;24.20;31.00
12981;DHT22;6555;50.468;8.480;2022-08-21T21:45:51;24.10;31.30
12981;DHT22;6555;50.468;8.480;2022-08-21T21:51:33;24.00;31.10
12981;DHT22;6555;50.468;8.480;2022-08-21T21:56:59;23.80;31.30
12981;DHT22;6555;50.468;8.480;2022-08-21T22:02:38;23.80;31.30
12981;DHT22;6555;50.468;8.480;2022-08-21T22:08:06;23.70;31.60
12981;DHT22;6555;50.468;8.480;2022-08-21T22:13:50;23.70;31.40
12981;DHT22;6555;50.468;8.480;2022-08-21T22:19:13;23.60;31.70
12981;DHT22;6555;50.468;8.480;2022-08-21T22:24:47;23.50;31.60
12981;DHT22;6555;50.468;8.480;2022-08-21T22:30:09;23.40;31.80
12981;DHT22;6555;50.468;8.480;2022-08-21T22:35:45;23.40;31.70
12981;DHT22;6555;50.468;8.480;2022-08-21T22:41:14;23.30;31.90
12981;DHT22;6555;50.468;8.480;2022-08-21T22:46:48;23.20;32.00
12981;DHT22;6555;50.468;8.480;2022-08-21T22:52:20;23.10;32.10
12981;DHT22;6555;50.468;8.480;2022-08-21T22:58:03;23.00;32.30
12981;DHT22;6555;50.468;8.480;2022-08-21T23:03:27;22.90;32.50
12981;DHT22;6555;50.468;8.480;2022-08-21T23:08:58;22.80;32.20
12981;DHT22;6555;50.468;8.480;2022-08-21T23:14:17;22.60;32.40
12981;DHT22;6555;50.468;8.480;2022-08-21T23:19:54;22.50;32.00
12981;DHT22;6555;50.468;8.480;2022-08-21T23:25:26;22.30;32.60
12981;DHT22;6555;50.468;8.480;2022-08-21T23:31:17;22.20;32.40
12981;DHT22;6555;50.468;8.480;2022-08-21T23:36:47;22.10;33.00
12981;DHT22;6555;50.468;8.480;2022-08-21T23:42:51;22.00;32.90
12981;DHT22;6555;50.468;8.480;2022-08-21T23:48:18;21.90;33.00
12981;DHT22;6555;50.468;8.480;2022-08-21T23:54:00;21.80;32.80
12981;DHT22;6555;50.468;8.480;2022-08-21T23:59:29;21.80;33.30
